Westgard — PDBQ — position and weather

sailwx.info

Track history (hours):
 
Tides and Currents Weather Stations Pressure Air Temp Water Temp Dewpoint Dewpoint Depression Visibility Wind Speed Wind Dir Waves Ship Positions

Westgard

Last reported at 2015-Apr-01 22:34 UTC. Time now 2015-Apr-01 22:39 UTC.
Position N 53°32' E 005°33'.

Length 89 m; draft 3.6 m.

Type: Ship. MMSI: 246457000.

Date/timePositionNaut miles runAvg speedWind from/ knotsBaromVisibWave heightAir tempDewpointWater temp
2015-Apr-01 22:34N 53°32' E 005°33'9 8.1
2015-Apr-01 21:30N 53°34' E 005°46'7 7.6
2015-Apr-01 20:33N 53°37' E 005°58'23 5.1
2015-Apr-01 16:03N 53°35' E 006°37'5 9.5
2015-Apr-01 15:34N 53°32' E 006°43'1111.4
2015-Apr-01 14:34N 53°25' E 006°57'5 4.8
2015-Apr-01 13:33N 53°20' E 006°56'0 0.0
2015-Apr-01 12:33N 53°20' E 006°56'0 0.0
2015-Apr-01 11:33N 53°20' E 006°56'0 0.0
2015-Apr-01 10:33N 53°20' E 006°56'0 0.0
2015-Apr-01 09:26N 53°20' E 006°56'0 0.0
2015-Apr-01 08:29N 53°20' E 006°56'0 0.0
2015-Apr-01 07:32N 53°20' E 006°56'0 0.0
2015-Apr-01 06:32N 53°20' E 006°56'0 0.0
2015-Apr-01 05:32N 53°20' E 006°56'0 0.0
2015-Apr-01 04:32N 53°20' E 006°56'0 0.0
2015-Apr-01 03:26N 53°20' E 006°56'0 0.0
2015-Apr-01 02:32N 53°20' E 006°56'0 0.0
2015-Apr-01 01:32N 53°20' E 006°56'0 0.0
2015-Apr-01 00:32N 53°20' E 006°56'0 0.0
2015-Mar-31 23:32N 53°20' E 006°56'0 0.0
2015-Mar-31 22:32N 53°20' E 006°56'0 0.0
2015-Mar-31 21:32N 53°20' E 006°56'0 0.0
2015-Mar-31 20:32N 53°20' E 006°56'0 0.0
2015-Mar-31 19:29N 53°20' E 006°56'0 0.0
2015-Mar-31 18:32N 53°20' E 006°56'0 0.0
2015-Mar-31 17:32N 53°20' E 006°56'0 0.0
2015-Mar-31 16:32N 53°20' E 006°56'0 0.0
2015-Mar-31 15:32N 53°20' E 006°56'0 0.0
2015-Mar-31 14:32N 53°20' E 006°56'0 0.0
2015-Mar-31 13:32N 53°20' E 006°56'0 0.0
2015-Mar-31 12:29N 53°20' E 006°56'0 0.0
2015-Mar-31 11:32N 53°20' E 006°56'0 0.0
2015-Mar-31 10:29N 53°20' E 006°56'0 0.0
2015-Mar-31 09:23N 53°20' E 006°56'0 0.0
2015-Mar-31 08:32N 53°20' E 006°56'0 0.0
2015-Mar-31 07:20N 53°20' E 006°56'0 0.0
2015-Mar-31 06:32N 53°20' E 006°56'0 0.0
2015-Mar-31 05:32N 53°20' E 006°56'0 0.0
2015-Mar-31 04:32N 53°20' E 006°56'0 0.0
2015-Mar-31 03:20N 53°20' E 006°56'0 0.0
2015-Mar-31 02:32N 53°20' E 006°56'0 0.0
2015-Mar-31 01:32N 53°20' E 006°56'0 0.0
2015-Mar-31 00:31N 53°20' E 006°56'0 0.0
2015-Mar-30 23:22N 53°20' E 006°56'0 0.0
2015-Mar-30 22:31N 53°20' E 006°56'0 0.0
2015-Mar-30 21:25N 53°20' E 006°56'0 0.0
2015-Mar-30 20:31N 53°20' E 006°56'0 0.0
2015-Mar-30 19:31N 53°20' E 006°56'0 0.0
2015-Mar-30 18:28N 53°20' E 006°56'0 0.0
2015-Mar-30 17:28N 53°20' E 006°56'0 0.0
2015-Mar-30 16:31N 53°20' E 006°56'0 0.0
2015-Mar-30 15:31N 53°20' E 006°56'0 0.0
2015-Mar-30 14:31N 53°20' E 006°56'0 0.1
2015-Mar-30 13:28N 53°20' E 006°56'3 3.0
2015-Mar-30 12:33N 53°22' E 006°59'1010.3
2015-Mar-30 11:33N 53°30' E 006°48'8 7.0
2015-Mar-30 10:25N 53°35' E 006°37'1011.4
2015-Mar-30 09:33N 53°29' E 006°50'6 5.8
2015-Mar-30 08:33N 53°25' E 006°57'6 5.8
2015-Mar-30 07:33N 53°19' E 006°59'2 1.7
2015-Mar-30 06:31N 53°20' E 006°56'0 0.0
2015-Mar-30 05:31N 53°20' E 006°56'0 0.0
2015-Mar-30 04:32N 53°20' E 006°56'0 0.0
2015-Mar-30 03:29N 53°20' E 006°56'0 0.0
2015-Mar-30 02:26N 53°20' E 006°56'0 0.0
2015-Mar-30 01:32N 53°20' E 006°56'0 0.0
2015-Mar-30 00:32N 53°20' E 006°56'0 0.0
2015-Mar-29 23:32N 53°20' E 006°56'0 0.0
2015-Mar-29 22:29N 53°20' E 006°56'0 0.0
2015-Mar-29 21:29N 53°20' E 006°56'0 0.0
2015-Mar-29 20:29N 53°20' E 006°56'0 0.0
2015-Mar-29 19:32N 53°20' E 006°56'0 0.0
2015-Mar-29 18:32N 53°20' E 006°56'0 0.0
2015-Mar-29 17:32N 53°20' E 006°56'0 0.0
2015-Mar-29 16:31N 53°20' E 006°56'0 0.0
2015-Mar-29 15:31N 53°20' E 006°56'0 0.0
2015-Mar-29 14:31N 53°20' E 006°56'0 0.0
2015-Mar-29 13:31N 53°20' E 006°56'0 0.0
2015-Mar-29 12:31N 53°20' E 006°56'0 0.0
2015-Mar-29 11:33N 53°20' E 006°56'0 0.0
2015-Mar-29 10:27N 53°20' E 006°56'0 0.0
2015-Mar-29 09:33N 53°20' E 006°56'0 0.0
2015-Mar-29 08:33N 53°20' E 006°56'0 0.0
2015-Mar-29 07:33N 53°20' E 006°56'0 0.0
2015-Mar-29 06:29N 53°20' E 006°56'0 0.0
2015-Mar-29 05:32N 53°20' E 006°56'0 0.0
2015-Mar-29 04:29N 53°20' E 006°56'0 0.0
2015-Mar-29 03:32N 53°20' E 006°56'0 0.0
2015-Mar-29 02:32N 53°20' E 006°56'0 0.0
2015-Mar-29 01:32N 53°20' E 006°56'0 0.0
2015-Mar-29 00:26N 53°20' E 006°56'0 0.0
2015-Mar-28 23:32N 53°20' E 006°56'0 0.0
2015-Mar-28 22:32N 53°20' E 006°56'0 0.0
2015-Mar-28 21:32N 53°20' E 006°56'0 0.0
2015-Mar-28 20:29N 53°20' E 006°56'0 0.0
2015-Mar-28 19:29N 53°20' E 006°56'0 0.0
2015-Mar-28 18:23N 53°20' E 006°56'0 0.0
2015-Mar-28 17:32N 53°20' E 006°56'0 0.0
2015-Mar-28 16:29N 53°20' E 006°56'0 0.0
2015-Mar-28 15:26N 53°20' E 006°56'0 0.0
2015-Mar-28 14:32N 53°20' E 006°56'0 0.0
2015-Mar-28 13:19N 53°20' E 006°56'0 0.0
2015-Mar-28 12:31N 53°20' E 006°56'0 0.0
2015-Mar-28 11:31N 53°20' E 006°56'0 0.0
2015-Mar-28 10:28N 53°20' E 006°56'0 0.0
2015-Mar-28 09:31N 53°20' E 006°56'0 0.0
2015-Mar-28 08:31N 53°20' E 006°56'0 0.0
2015-Mar-28 07:31N 53°20' E 006°56'0 0.0
2015-Mar-28 06:31N 53°20' E 006°56'0 0.0
2015-Mar-28 05:28N 53°20' E 006°56'0 0.0
2015-Mar-28 04:28N 53°20' E 006°56'0 0.0
2015-Mar-28 03:28N 53°20' E 006°56'0 0.0
2015-Mar-28 02:31N 53°20' E 006°56'0 0.0
2015-Mar-28 01:31N 53°20' E 006°56'0 0.0
2015-Mar-28 00:31N 53°20' E 006°56'0 0.0
2015-Mar-27 23:31N 53°20' E 006°56'0 0.0
2015-Mar-27 22:31N 53°20' E 006°56'0 0.0
2015-Mar-27 21:31N 53°20' E 006°56'0 0.0
2015-Mar-27 20:31N 53°20' E 006°56'0 0.0
2015-Mar-27 19:31N 53°20' E 006°56'0 0.0
2015-Mar-27 18:31N 53°20' E 006°56'0 0.0
2015-Mar-27 17:31N 53°20' E 006°56'0 0.0
2015-Mar-27 16:31N 53°20' E 006°56'0 0.0
2015-Mar-27 15:31N 53°20' E 006°56'0 0.0
2015-Mar-27 14:31N 53°20' E 006°56'0 0.0
2015-Mar-27 13:31N 53°20' E 006°56'0 0.0
2015-Mar-27 12:28N 53°20' E 006°56'0 0.0
2015-Mar-27 11:28N 53°20' E 006°56'0 0.0
2015-Mar-27 10:31N 53°20' E 006°56'0 0.0
2015-Mar-27 09:31N 53°20' E 006°56'0 0.0
2015-Mar-27 08:28N 53°20' E 006°56'0 0.0
2015-Mar-27 07:25N 53°20' E 006°56'0 0.0
2015-Mar-27 06:28N 53°20' E 006°56'0 0.0
2015-Mar-27 05:34N 53°20' E 006°56'0 0.0
2015-Mar-27 04:33N 53°20' E 006°56'0 0.0
2015-Mar-27 03:33N 53°20' E 006°56'0 0.0
2015-Mar-27 02:33N 53°20' E 006°56'0 0.0
2015-Mar-27 01:30N 53°20' E 006°56'0 0.0
2015-Mar-27 00:33N 53°20' E 006°56'0 0.0
2015-Mar-26 23:30N 53°20' E 006°56'0 0.0
2015-Mar-26 22:33N 53°20' E 006°56'0 0.0
2015-Mar-26 21:30N 53°20' E 006°56'0 0.0
2015-Mar-26 20:33N 53°20' E 006°56'0 0.0
2015-Mar-26 19:33N 53°20' E 006°56'0 0.0
2015-Mar-26 18:33N 53°20' E 006°56'0 0.0
2015-Mar-26 17:33N 53°20' E 006°56'0 0.0
2015-Mar-26 16:32N 53°20' E 006°56'0 0.0
2015-Mar-26 15:32N 53°20' E 006°56'0 0.0
2015-Mar-26 14:32N 53°20' E 006°56'0 0.0
2015-Mar-26 13:32N 53°20' E 006°56'0 0.0
2015-Mar-26 12:32N 53°20' E 006°56'0 0.0
2015-Mar-26 11:32N 53°20' E 006°56'0 0.0
2015-Mar-26 10:32N 53°20' E 006°56'0 0.0
2015-Mar-26 09:32N 53°20' E 006°56'0 0.0
2015-Mar-26 08:32N 53°20' E 006°56'0 0.0
2015-Mar-26 07:32N 53°20' E 006°56'0 0.0
2015-Mar-26 06:32N 53°20' E 006°56'0 0.0
2015-Mar-26 05:32N 53°20' E 006°56'0 0.0
2015-Mar-26 04:32N 53°20' E 006°56'0 0.0
2015-Mar-26 03:31N 53°20' E 006°56'0 0.0
2015-Mar-26 02:31N 53°20' E 006°56'0 0.0
2015-Mar-26 01:28N 53°20' E 006°56'0 0.0
2015-Mar-26 00:31N 53°20' E 006°56'0 0.0
2015-Mar-25 23:31N 53°20' E 006°56'0 0.0
2015-Mar-25 22:31N 53°20' E 006°56'0 0.0
2015-Mar-25 21:31N 53°20' E 006°56'0 0.0
2015-Mar-25 20:31N 53°20' E 006°56'0 0.0
2015-Mar-25 19:31N 53°20' E 006°56'0 0.0
2015-Mar-25 18:31N 53°20' E 006°56'0 0.0
2015-Mar-25 17:25N 53°20' E 006°56'0 0.0
2015-Mar-25 16:28N 53°20' E 006°56'0 0.0
2015-Mar-25 15:31N 53°20' E 006°56'0 0.0
2015-Mar-25 14:28N 53°20' E 006°56'0 0.0
2015-Mar-25 13:28N 53°20' E 006°56'0 0.0
2015-Mar-25 12:28N 53°20' E 006°56'0 0.0
2015-Mar-25 11:31N 53°20' E 006°56'0 0.0
2015-Mar-25 10:31N 53°20' E 006°56'0 0.0
2015-Mar-25 09:22N 53°20' E 006°56'0 0.0
2015-Mar-25 08:31N 53°20' E 006°56'0 0.0
2015-Mar-25 07:31N 53°20' E 006°56'0 0.0
2015-Mar-25 06:25N 53°20' E 006°56'0 0.0
2015-Mar-25 05:31N 53°20' E 006°56'0 0.0
2015-Mar-25 04:31N 53°20' E 006°56'0 0.0
2015-Mar-25 03:31N 53°20' E 006°56'0 0.0
2015-Mar-25 02:28N 53°20' E 006°56'0 0.0
2015-Mar-25 01:31N 53°20' E 006°56'0 0.0
2015-Mar-25 00:25N 53°20' E 006°56'0 0.0
2015-Mar-24 23:31N 53°20' E 006°56'0 0.0
2015-Mar-24 22:31N 53°20' E 006°56'0 0.0
2015-Mar-24 21:31N 53°20' E 006°56'0 0.0
2015-Mar-24 20:34N 53°20' E 006°56'0 0.0
2015-Mar-24 19:34N 53°20' E 006°56'0 0.0
2015-Mar-24 18:33N 53°20' E 006°56'0 0.0
2015-Mar-24 17:33N 53°20' E 006°56'0 0.0
2015-Mar-24 16:33N 53°20' E 006°56'0 0.0
2015-Mar-24 15:33N 53°20' E 006°56'0 0.0
2015-Mar-24 14:33N 53°20' E 006°56'0 0.0
2015-Mar-24 13:33N 53°20' E 006°56'0 0.0
2015-Mar-24 12:30N 53°20' E 006°56'0 0.0
2015-Mar-24 11:33N 53°20' E 006°56'0 0.0
2015-Mar-24 10:30N 53°20' E 006°56'0 0.0
2015-Mar-24 09:33N 53°20' E 006°56'0 0.0
2015-Mar-24 08:33N 53°20' E 006°56'0 0.0
2015-Mar-24 07:33N 53°20' E 006°56'0 0.0
2015-Mar-24 06:33N 53°20' E 006°56'0 0.0
2015-Mar-24 05:33N 53°20' E 006°56'0 0.0
2015-Mar-24 04:30N 53°20' E 006°56'0 0.0
2015-Mar-24 03:33N 53°20' E 006°56'0 0.0
2015-Mar-24 02:33N 53°20' E 006°56'0 0.0
2015-Mar-24 01:33N 53°20' E 006°56'0 0.0
2015-Mar-24 00:33N 53°20' E 006°56'0 0.0
2015-Mar-23 23:27N 53°20' E 006°56'0 0.0
2015-Mar-23 22:30N 53°20' E 006°56'0 0.0
2015-Mar-23 21:33N 53°20' E 006°56'0 0.0
2015-Mar-23 20:33N 53°20' E 006°56'0 0.0
2015-Mar-23 19:33N 53°20' E 006°56'0 0.0
2015-Mar-23 18:33N 53°20' E 006°56'0 0.0
2015-Mar-23 17:33N 53°20' E 006°56'0 0.0
2015-Mar-23 16:30N 53°20' E 006°56'0 0.0
2015-Mar-23 15:33N 53°20' E 006°56'0 0.0
2015-Mar-23 14:33N 53°20' E 006°56'0 0.0
2015-Mar-23 13:33N 53°20' E 006°56'0 0.0
2015-Mar-23 12:33N 53°20' E 006°56'0 0.0
2015-Mar-23 11:33N 53°20' E 006°56'0 0.0
2015-Mar-23 10:30N 53°20' E 006°56'0 0.0
2015-Mar-23 09:33N 53°20' E 006°56'0 0.0
2015-Mar-23 08:30N 53°20' E 006°56'0 0.0
2015-Mar-23 07:31N 53°20' E 006°56'0 0.0
2015-Mar-23 06:25N 53°20' E 006°56'0 0.0
2015-Mar-23 05:31N 53°20' E 006°56'0 0.0
2015-Mar-23 04:31N 53°20' E 006°56'0 0.0
2015-Mar-23 03:30N 53°20' E 006°56'0 0.0
2015-Mar-23 02:33N 53°20' E 006°56'0 0.0
2015-Mar-23 01:33N 53°20' E 006°56'0 0.0
2015-Mar-23 00:33N 53°20' E 006°56'0 0.0
2015-Mar-22 23:33N 53°20' E 006°56'  
Track history (hours):
 
Tides and Currents Weather Stations Pressure Air Temp Water Temp Dewpoint Dewpoint Depression Visibility Wind Speed Wind Dir Waves Ship Positions

Westgard

Last reported at 2015-Apr-01 22:34 UTC. Time now 2015-Apr-01 22:39 UTC.
Position N 53°32' E 005°33'.

Length 89 m; draft 3.6 m.

Type: Ship. MMSI: 246457000.

Date/timePositionNaut miles runAvg speedWind from/ knotsBaromVisibWave heightAir tempDewpointWater temp
2015-Apr-01 22:34N 53°32' E 005°33'9 8.1
2015-Apr-01 21:30N 53°34' E 005°46'7 7.6
2015-Apr-01 20:33N 53°37' E 005°58'23 5.1
2015-Apr-01 16:03N 53°35' E 006°37'5 9.5
2015-Apr-01 15:34N 53°32' E 006°43'1111.4
2015-Apr-01 14:34N 53°25' E 006°57'5 4.8
2015-Apr-01 13:33N 53°20' E 006°56'0 0.0
2015-Apr-01 12:33N 53°20' E 006°56'0 0.0
2015-Apr-01 11:33N 53°20' E 006°56'0 0.0
2015-Apr-01 10:33N 53°20' E 006°56'0 0.0
2015-Apr-01 09:26N 53°20' E 006°56'0 0.0
2015-Apr-01 08:29N 53°20' E 006°56'0 0.0
2015-Apr-01 07:32N 53°20' E 006°56'0 0.0
2015-Apr-01 06:32N 53°20' E 006°56'0 0.0
2015-Apr-01 05:32N 53°20' E 006°56'0 0.0
2015-Apr-01 04:32N 53°20' E 006°56'0 0.0
2015-Apr-01 03:26N 53°20' E 006°56'0 0.0
2015-Apr-01 02:32N 53°20' E 006°56'0 0.0
2015-Apr-01 01:32N 53°20' E 006°56'0 0.0
2015-Apr-01 00:32N 53°20' E 006°56'0 0.0
2015-Mar-31 23:32N 53°20' E 006°56'0 0.0
2015-Mar-31 22:32N 53°20' E 006°56'0 0.0
2015-Mar-31 21:32N 53°20' E 006°56'0 0.0
2015-Mar-31 20:32N 53°20' E 006°56'0 0.0
2015-Mar-31 19:29N 53°20' E 006°56'0 0.0
2015-Mar-31 18:32N 53°20' E 006°56'0 0.0
2015-Mar-31 17:32N 53°20' E 006°56'0 0.0
2015-Mar-31 16:32N 53°20' E 006°56'0 0.0
2015-Mar-31 15:32N 53°20' E 006°56'0 0.0
2015-Mar-31 14:32N 53°20' E 006°56'0 0.0
2015-Mar-31 13:32N 53°20' E 006°56'0 0.0
2015-Mar-31 12:29N 53°20' E 006°56'0 0.0
2015-Mar-31 11:32N 53°20' E 006°56'0 0.0
2015-Mar-31 10:29N 53°20' E 006°56'0 0.0
2015-Mar-31 09:23N 53°20' E 006°56'0 0.0
2015-Mar-31 08:32N 53°20' E 006°56'0 0.0
2015-Mar-31 07:20N 53°20' E 006°56'0 0.0
2015-Mar-31 06:32N 53°20' E 006°56'0 0.0
2015-Mar-31 05:32N 53°20' E 006°56'0 0.0
2015-Mar-31 04:32N 53°20' E 006°56'0 0.0
2015-Mar-31 03:20N 53°20' E 006°56'0 0.0
2015-Mar-31 02:32N 53°20' E 006°56'0 0.0
2015-Mar-31 01:32N 53°20' E 006°56'0 0.0
2015-Mar-31 00:31N 53°20' E 006°56'0 0.0
2015-Mar-30 23:22N 53°20' E 006°56'0 0.0
2015-Mar-30 22:31N 53°20' E 006°56'0 0.0
2015-Mar-30 21:25N 53°20' E 006°56'0 0.0
2015-Mar-30 20:31N 53°20' E 006°56'0 0.0
2015-Mar-30 19:31N 53°20' E 006°56'0 0.0
2015-Mar-30 18:28N 53°20' E 006°56'0 0.0
2015-Mar-30 17:28N 53°20' E 006°56'0 0.0
2015-Mar-30 16:31N 53°20' E 006°56'0 0.0
2015-Mar-30 15:31N 53°20' E 006°56'0 0.0
2015-Mar-30 14:31N 53°20' E 006°56'0 0.1
2015-Mar-30 13:28N 53°20' E 006°56'3 3.0
2015-Mar-30 12:33N 53°22' E 006°59'1010.3
2015-Mar-30 11:33N 53°30' E 006°48'8 7.0
2015-Mar-30 10:25N 53°35' E 006°37'1011.4
2015-Mar-30 09:33N 53°29' E 006°50'6 5.8
2015-Mar-30 08:33N 53°25' E 006°57'6 5.8
2015-Mar-30 07:33N 53°19' E 006°59'2 1.7
2015-Mar-30 06:31N 53°20' E 006°56'0 0.0
2015-Mar-30 05:31N 53°20' E 006°56'0 0.0
2015-Mar-30 04:32N 53°20' E 006°56'0 0.0
2015-Mar-30 03:29N 53°20' E 006°56'0 0.0
2015-Mar-30 02:26N 53°20' E 006°56'0 0.0
2015-Mar-30 01:32N 53°20' E 006°56'0 0.0
2015-Mar-30 00:32N 53°20' E 006°56'0 0.0
2015-Mar-29 23:32N 53°20' E 006°56'0 0.0
2015-Mar-29 22:29N 53°20' E 006°56'0 0.0
2015-Mar-29 21:29N 53°20' E 006°56'0 0.0
2015-Mar-29 20:29N 53°20' E 006°56'0 0.0
2015-Mar-29 19:32N 53°20' E 006°56'0 0.0
2015-Mar-29 18:32N 53°20' E 006°56'0 0.0
2015-Mar-29 17:32N 53°20' E 006°56'0 0.0
2015-Mar-29 16:31N 53°20' E 006°56'0 0.0
2015-Mar-29 15:31N 53°20' E 006°56'0 0.0
2015-Mar-29 14:31N 53°20' E 006°56'0 0.0
2015-Mar-29 13:31N 53°20' E 006°56'0 0.0
2015-Mar-29 12:31N 53°20' E 006°56'0 0.0
2015-Mar-29 11:33N 53°20' E 006°56'0 0.0
2015-Mar-29 10:27N 53°20' E 006°56'0 0.0
2015-Mar-29 09:33N 53°20' E 006°56'0 0.0
2015-Mar-29 08:33N 53°20' E 006°56'0 0.0
2015-Mar-29 07:33N 53°20' E 006°56'0 0.0
2015-Mar-29 06:29N 53°20' E 006°56'0 0.0
2015-Mar-29 05:32N 53°20' E 006°56'0 0.0
2015-Mar-29 04:29N 53°20' E 006°56'0 0.0
2015-Mar-29 03:32N 53°20' E 006°56'0 0.0
2015-Mar-29 02:32N 53°20' E 006°56'0 0.0
2015-Mar-29 01:32N 53°20' E 006°56'0 0.0
2015-Mar-29 00:26N 53°20' E 006°56'0 0.0
2015-Mar-28 23:32N 53°20' E 006°56'0 0.0
2015-Mar-28 22:32N 53°20' E 006°56'0 0.0
2015-Mar-28 21:32N 53°20' E 006°56'0 0.0
2015-Mar-28 20:29N 53°20' E 006°56'0 0.0
2015-Mar-28 19:29N 53°20' E 006°56'0 0.0
2015-Mar-28 18:23N 53°20' E 006°56'0 0.0
2015-Mar-28 17:32N 53°20' E 006°56'0 0.0
2015-Mar-28 16:29N 53°20' E 006°56'0 0.0
2015-Mar-28 15:26N 53°20' E 006°56'0 0.0
2015-Mar-28 14:32N 53°20' E 006°56'0 0.0
2015-Mar-28 13:19N 53°20' E 006°56'0 0.0
2015-Mar-28 12:31N 53°20' E 006°56'0 0.0
2015-Mar-28 11:31N 53°20' E 006°56'0 0.0
2015-Mar-28 10:28N 53°20' E 006°56'0 0.0
2015-Mar-28 09:31N 53°20' E 006°56'0 0.0
2015-Mar-28 08:31N 53°20' E 006°56'0 0.0
2015-Mar-28 07:31N 53°20' E 006°56'0 0.0
2015-Mar-28 06:31N 53°20' E 006°56'0 0.0
2015-Mar-28 05:28N 53°20' E 006°56'0 0.0
2015-Mar-28 04:28N 53°20' E 006°56'0 0.0
2015-Mar-28 03:28N 53°20' E 006°56'0 0.0
2015-Mar-28 02:31N 53°20' E 006°56'0 0.0
2015-Mar-28 01:31N 53°20' E 006°56'0 0.0
2015-Mar-28 00:31N 53°20' E 006°56'0 0.0
2015-Mar-27 23:31N 53°20' E 006°56'0 0.0
2015-Mar-27 22:31N 53°20' E 006°56'0 0.0
2015-Mar-27 21:31N 53°20' E 006°56'0 0.0
2015-Mar-27 20:31N 53°20' E 006°56'0 0.0
2015-Mar-27 19:31N 53°20' E 006°56'0 0.0
2015-Mar-27 18:31N 53°20' E 006°56'0 0.0
2015-Mar-27 17:31N 53°20' E 006°56'0 0.0
2015-Mar-27 16:31N 53°20' E 006°56'0 0.0
2015-Mar-27 15:31N 53°20' E 006°56'0 0.0
2015-Mar-27 14:31N 53°20' E 006°56'0 0.0
2015-Mar-27 13:31N 53°20' E 006°56'0 0.0
2015-Mar-27 12:28N 53°20' E 006°56'0 0.0
2015-Mar-27 11:28N 53°20' E 006°56'0 0.0
2015-Mar-27 10:31N 53°20' E 006°56'0 0.0
2015-Mar-27 09:31N 53°20' E 006°56'0 0.0
2015-Mar-27 08:28N 53°20' E 006°56'0 0.0
2015-Mar-27 07:25N 53°20' E 006°56'0 0.0
2015-Mar-27 06:28N 53°20' E 006°56'0 0.0
2015-Mar-27 05:34N 53°20' E 006°56'0 0.0
2015-Mar-27 04:33N 53°20' E 006°56'0 0.0
2015-Mar-27 03:33N 53°20' E 006°56'0 0.0
2015-Mar-27 02:33N 53°20' E 006°56'0 0.0
2015-Mar-27 01:30N 53°20' E 006°56'0 0.0
2015-Mar-27 00:33N 53°20' E 006°56'0 0.0
2015-Mar-26 23:30N 53°20' E 006°56'0 0.0
2015-Mar-26 22:33N 53°20' E 006°56'0 0.0
2015-Mar-26 21:30N 53°20' E 006°56'0 0.0
2015-Mar-26 20:33N 53°20' E 006°56'0 0.0
2015-Mar-26 19:33N 53°20' E 006°56'0 0.0
2015-Mar-26 18:33N 53°20' E 006°56'0 0.0
2015-Mar-26 17:33N 53°20' E 006°56'0 0.0
2015-Mar-26 16:32N 53°20' E 006°56'0 0.0
2015-Mar-26 15:32N 53°20' E 006°56'0 0.0
2015-Mar-26 14:32N 53°20' E 006°56'0 0.0
2015-Mar-26 13:32N 53°20' E 006°56'0 0.0
2015-Mar-26 12:32N 53°20' E 006°56'0 0.0
2015-Mar-26 11:32N 53°20' E 006°56'0 0.0
2015-Mar-26 10:32N 53°20' E 006°56'0 0.0
2015-Mar-26 09:32N 53°20' E 006°56'0 0.0
2015-Mar-26 08:32N 53°20' E 006°56'0 0.0
2015-Mar-26 07:32N 53°20' E 006°56'0 0.0
2015-Mar-26 06:32N 53°20' E 006°56'0 0.0
2015-Mar-26 05:32N 53°20' E 006°56'0 0.0
2015-Mar-26 04:32N 53°20' E 006°56'0 0.0
2015-Mar-26 03:31N 53°20' E 006°56'0 0.0
2015-Mar-26 02:31N 53°20' E 006°56'0 0.0
2015-Mar-26 01:28N 53°20' E 006°56'0 0.0
2015-Mar-26 00:31N 53°20' E 006°56'0 0.0
2015-Mar-25 23:31N 53°20' E 006°56'0 0.0
2015-Mar-25 22:31N 53°20' E 006°56'0 0.0
2015-Mar-25 21:31N 53°20' E 006°56'0 0.0
2015-Mar-25 20:31N 53°20' E 006°56'0 0.0
2015-Mar-25 19:31N 53°20' E 006°56'0 0.0
2015-Mar-25 18:31N 53°20' E 006°56'0 0.0
2015-Mar-25 17:25N 53°20' E 006°56'0 0.0
2015-Mar-25 16:28N 53°20' E 006°56'0 0.0
2015-Mar-25 15:31N 53°20' E 006°56'0 0.0
2015-Mar-25 14:28N 53°20' E 006°56'0 0.0
2015-Mar-25 13:28N 53°20' E 006°56'0 0.0
2015-Mar-25 12:28N 53°20' E 006°56'0 0.0
2015-Mar-25 11:31N 53°20' E 006°56'0 0.0
2015-Mar-25 10:31N 53°20' E 006°56'0 0.0
2015-Mar-25 09:22N 53°20' E 006°56'0 0.0
2015-Mar-25 08:31N 53°20' E 006°56'0 0.0
2015-Mar-25 07:31N 53°20' E 006°56'0 0.0
2015-Mar-25 06:25N 53°20' E 006°56'0 0.0
2015-Mar-25 05:31N 53°20' E 006°56'0 0.0
2015-Mar-25 04:31N 53°20' E 006°56'0 0.0
2015-Mar-25 03:31N 53°20' E 006°56'0 0.0
2015-Mar-25 02:28N 53°20' E 006°56'0 0.0
2015-Mar-25 01:31N 53°20' E 006°56'0 0.0
2015-Mar-25 00:25N 53°20' E 006°56'0 0.0
2015-Mar-24 23:31N 53°20' E 006°56'0 0.0
2015-Mar-24 22:31N 53°20' E 006°56'0 0.0
2015-Mar-24 21:31N 53°20' E 006°56'0 0.0
2015-Mar-24 20:34N 53°20' E 006°56'0 0.0
2015-Mar-24 19:34N 53°20' E 006°56'0 0.0
2015-Mar-24 18:33N 53°20' E 006°56'0 0.0
2015-Mar-24 17:33N 53°20' E 006°56'0 0.0
2015-Mar-24 16:33N 53°20' E 006°56'0 0.0
2015-Mar-24 15:33N 53°20' E 006°56'0 0.0
2015-Mar-24 14:33N 53°20' E 006°56'0 0.0
2015-Mar-24 13:33N 53°20' E 006°56'0 0.0
2015-Mar-24 12:30N 53°20' E 006°56'0 0.0
2015-Mar-24 11:33N 53°20' E 006°56'0 0.0
2015-Mar-24 10:30N 53°20' E 006°56'0 0.0
2015-Mar-24 09:33N 53°20' E 006°56'0 0.0
2015-Mar-24 08:33N 53°20' E 006°56'0 0.0
2015-Mar-24 07:33N 53°20' E 006°56'0 0.0
2015-Mar-24 06:33N 53°20' E 006°56'0 0.0
2015-Mar-24 05:33N 53°20' E 006°56'0 0.0
2015-Mar-24 04:30N 53°20' E 006°56'0 0.0
2015-Mar-24 03:33N 53°20' E 006°56'0 0.0
2015-Mar-24 02:33N 53°20' E 006°56'0 0.0
2015-Mar-24 01:33N 53°20' E 006°56'0 0.0
2015-Mar-24 00:33N 53°20' E 006°56'0 0.0
2015-Mar-23 23:27N 53°20' E 006°56'0 0.0
2015-Mar-23 22:30N 53°20' E 006°56'0 0.0
2015-Mar-23 21:33N 53°20' E 006°56'0 0.0
2015-Mar-23 20:33N 53°20' E 006°56'0 0.0
2015-Mar-23 19:33N 53°20' E 006°56'0 0.0
2015-Mar-23 18:33N 53°20' E 006°56'0 0.0
2015-Mar-23 17:33N 53°20' E 006°56'0 0.0
2015-Mar-23 16:30N 53°20' E 006°56'0 0.0
2015-Mar-23 15:33N 53°20' E 006°56'0 0.0
2015-Mar-23 14:33N 53°20' E 006°56'0 0.0
2015-Mar-23 13:33N 53°20' E 006°56'0 0.0
2015-Mar-23 12:33N 53°20' E 006°56'0 0.0
2015-Mar-23 11:33N 53°20' E 006°56'0 0.0
2015-Mar-23 10:30N 53°20' E 006°56'0 0.0
2015-Mar-23 09:33N 53°20' E 006°56'0 0.0
2015-Mar-23 08:30N 53°20' E 006°56'0 0.0
2015-Mar-23 07:31N 53°20' E 006°56'0 0.0
2015-Mar-23 06:25N 53°20' E 006°56'0 0.0
2015-Mar-23 05:31N 53°20' E 006°56'0 0.0
2015-Mar-23 04:31N 53°20' E 006°56'0 0.0
2015-Mar-23 03:30N 53°20' E 006°56'0 0.0
2015-Mar-23 02:33N 53°20' E 006°56'0 0.0
2015-Mar-23 01:33N 53°20' E 006°56'0 0.0
2015-Mar-23 00:33N 53°20' E 006°56'0 0.0
2015-Mar-22 23:33N 53°20' E 006°56'  

Dump ship's entire track history